Portada
METAR-TAF:

METAR-TAF

Aeropuertos :

Aeropuerto de Palermo-Punta Raisi

Palermo, Italia

latitud: 38-11N, longitud: 013-06E, altitud: 21 m

Observación

El informe se hizo hace 35 minutos, a las 10:50 UTC
Viento 16 kt del este-noreste
Temperatura 16°C
Humedad 72%
Presión 1010 hPa
Visibilidad 10 km o más
Nubes dispersas a una altura de 2500 ft
Cielo nuboso a una altura de 5500 ft

METAR: LICJ 161050Z 07016KT 9999 SCT025 BKN055 16/11 Q1010

Hora: 13:25 (11:25 UTC)

Pronóstico

El informe se hizo hace 6 horas y 25 minutos, a las 05:00 UTC
Pronóstico válido del 16 a las 06 UTC al 17 a las 06 UTC
Viento 14 kt del noreste
Visibilidad 10 km o más
Cielo nuboso a una altura de 4000 ft
Temporalmente
del 16 a las 06 UTC al 16 a las 18 UTC
chaparrones de lluvia

TAF: LICJ 160500Z 1606/1706 04014KT 9999 BKN040 TEMPO 1606/1618 SHRA

Observaciones y pronósticos meteorológicos de más de 4000 aeropuertos (mensajes METAR y TAF).

Los puntos amarillos y rojos representan las estaciones disponibles.

Ponga el ratón en el punto deseado para ver el nombre de la estación.

Haga clic para ver las observaciones y los pronósticos meteorológicos.

Para cambiar el mapa : haga clic en los botones verdes con una cruz de color negro para hacer un zoom, en el botón verde con un guión para alejar o en las flechas verdes para mapas adyacentes.


METAR-TAF: